Time;durP1;ratioP1;P1;durP2;ratioP2;P2;SDS_P1;SDS_P2;PMS_P1;PMS_P2;Temp;Humidity;BMP_temperature;BMP_pressure;BME280_temperature;BME280_humidity;BME280_pressure;Samples;Min_cycle;Max_cycle;Signal;HPM_P1;HPM_P2
2023/10/15 00:01:45;;;;;;;14.13;5.47;;;7.60;99.90;;;;;;4898865;29;20051;-89
2023/10/15 00:08:51;;;;;;;12.03;3.43;;;6.80;99.90;;;;;;4895925;29;20059;-88
2023/10/15 00:11:31;;;;;;;9.57;2.50;;;7.40;99.90;;;;;;4806995;29;20055;-87
2023/10/15 00:14:09;;;;;;;11.98;3.42;;;6.70;99.90;;;;;;4869736;29;20105;-87
2023/10/15 00:16:41;;;;;;;7.18;1.63;;;6.70;99.90;;;;;;4880567;29;20056;-84
2023/10/15 00:19:25;;;;;;;19.93;7.03;;;7.00;99.90;;;;;;4897043;29;20112;-83
2023/10/15 00:22:07;;;;;;;8.63;1.75;;;7.20;99.90;;;;;;4896988;29;20462;-83
2023/10/15 00:24:40;;;;;;;44.13;17.80;;;7.20;99.90;;;;;;4880504;29;20413;-83
2023/10/15 00:30:34;;;;;;;9.00;2.37;;;6.90;99.90;;;;;;4940492;23;20055;-83
2023/10/15 00:34:04;;;;;;;32.87;13.77;;;7.20;99.90;;;;;;4919106;29;20062;-84
2023/10/15 00:37:26;;;;;;;11.47;2.93;;;7.40;99.90;;;;;;4919357;29;20059;-83
2023/10/15 00:39:54;;;;;;;24.03;9.70;;;7.50;99.90;;;;;;4919967;29;20107;-86
2023/10/15 00:42:53;;;;;;;25.80;11.37;;;6.40;99.90;;;;;;4950023;28;20055;-86
2023/10/15 00:48:40;;;;;;;23.80;9.75;;;6.30;99.90;;;;;;4919138;29;20051;-86
2023/10/15 00:51:30;;;;;;;23.25;10.68;;;7.10;99.90;;;;;;4918593;29;20444;-85
2023/10/15 00:54:18;;;;;;;20.05;10.02;;;6.50;99.90;;;;;;4919273;29;20047;-86
2023/10/15 01:03:13;;;;;;;27.40;11.10;;;7.50;99.90;;;;;;4950567;29;20055;-83
2023/10/15 01:05:53;;;;;;;38.63;19.30;;;8.00;99.90;;;;;;4918223;29;20169;-86
2023/10/15 01:09:30;;;;;;;23.23;10.17;;;8.00;99.90;;;;;;4847289;29;20051;-87
2023/10/15 01:15:07;;;;;;;11.53;4.73;;;6.70;99.90;;;;;;4950975;29;20144;-86
2023/10/15 01:17:38;;;;;;;12.40;3.97;;;6.80;99.90;;;;;;4936819;29;20051;-86
2023/10/15 01:24:04;;;;;;;19.17;7.40;;;7.50;99.90;;;;;;4935902;29;20050;-86
2023/10/15 01:26:59;;;;;;;10.27;2.83;;;6.80;99.90;;;;;;4917818;29;20044;-84
2023/10/15 01:29:44;;;;;;;23.20;10.40;;;6.70;99.90;;;;;;4895745;23;20523;-86
2023/10/15 01:32:39;;;;;;;13.27;5.25;;;6.80;99.90;;;;;;4899359;29;20055;-86
2023/10/15 01:35:10;;;;;;;13.43;4.60;;;6.90;99.90;;;;;;4899210;29;20048;-86
2023/10/15 01:38:20;;;;;;;10.50;3.97;;;6.70;99.90;;;;;;4856734;29;20281;-84
2023/10/15 01:41:04;;;;;;;27.43;12.33;;;6.80;99.90;;;;;;4898603;23;20047;-84
2023/10/15 01:44:10;;;;;;;5.93;1.70;;;7.20;99.90;;;;;;4918497;29;20493;-84
2023/10/15 01:49:07;;;;;;;16.20;5.53;;;6.70;99.90;;;;;;4938275;23;20062;-84
2023/10/15 01:51:39;;;;;;;13.30;4.13;;;7.30;99.90;;;;;;4918272;29;20381;-84
2023/10/15 01:54:21;;;;;;;13.13;4.53;;;6.70;99.90;;;;;;4918077;29;20138;-84
2023/10/15 01:57:46;;;;;;;16.27;6.33;;;7.60;99.90;;;;;;5049520;23;20076;-84
2023/10/15 02:00:13;;;;;;;13.70;4.10;;;6.40;99.90;;;;;;4898085;29;20048;-84
2023/10/15 02:03:32;;;;;;;11.63;3.10;;;6.70;99.90;;;;;;4911554;29;20573;-85
2023/10/15 02:06:19;;;;;;;8.70;2.30;;;8.10;99.90;;;;;;4860614;29;20403;-84
2023/10/15 02:09:22;;;;;;;8.97;2.00;;;7.00;99.90;;;;;;4875756;29;20045;-83
2023/10/15 02:11:57;;;;;;;6.20;1.40;;;8.10;99.90;;;;;;4861254;29;20613;-84
2023/10/15 02:14:30;;;;;;;11.50;3.43;;;8.00;99.90;;;;;;4860943;29;20053;-84
2023/10/15 02:16:59;;;;;;;11.63;3.25;;;7.20;99.90;;;;;;4860562;29;20574;-84
2023/10/15 02:22:16;;;;;;;10.43;3.00;;;5.80;99.90;;;;;;4861851;29;20117;-85
2023/10/15 02:25:00;;;;;;;12.87;3.43;;;7.30;99.90;;;;;;4880359;29;20480;-84
2023/10/15 02:27:41;;;;;;;7.33;1.70;;;6.30;99.90;;;;;;4880197;29;20056;-84
2023/10/15 02:30:16;;;;;;;8.63;2.63;;;6.40;99.90;;;;;;4880280;29;20084;-84
2023/10/15 02:32:43;;;;;;;10.37;3.13;;;6.40;99.90;;;;;;4889005;29;20044;-84
2023/10/15 02:35:31;;;;;;;9.07;2.47;;;6.30;99.90;;;;;;4904819;24;20052;-84
2023/10/15 02:38:10;;;;;;;8.77;2.40;;;6.00;99.90;;;;;;4906658;29;20059;-85
2023/10/15 02:43:40;;;;;;;8.83;2.03;;;7.20;99.90;;;;;;5170034;23;20155;-84
2023/10/15 02:46:23;;;;;;;8.67;1.90;;;6.30;99.90;;;;;;4918274;29;20055;-84
2023/10/15 02:48:56;;;;;;;8.97;2.20;;;6.30;99.90;;;;;;4917688;29;20044;-84
2023/10/15 02:51:37;;;;;;;7.13;1.93;;;6.30;99.90;;;;;;4933529;29;20085;-84
2023/10/15 02:57:21;;;;;;;6.73;1.90;;;5.90;99.90;;;;;;4917585;29;20059;-85
2023/10/15 03:03:49;;;;;;;8.27;2.00;;;6.00;99.90;;;;;;4917323;29;20060;-85
2023/10/15 03:06:34;;;;;;;8.03;2.00;;;5.80;99.90;;;;;;4919472;29;20056;-85
2023/10/15 03:09:18;;;;;;;6.90;1.83;;;6.30;99.90;;;;;;4937749;29;20070;-85
2023/10/15 03:11:53;;;;;;;6.57;2.10;;;6.30;99.90;;;;;;4920372;29;20071;-84
2023/10/15 03:18:14;;;;;;;5.43;1.70;;;6.00;99.90;;;;;;4863746;29;20160;-85
2023/10/15 03:21:16;;;;;;;6.25;1.52;;;5.80;99.90;;;;;;4857397;29;20107;-85
2023/10/15 03:24:22;;;;;;;7.43;1.60;;;5.90;99.90;;;;;;4821309;29;20510;-85
2023/10/15 03:26:50;;;;;;;6.40;1.95;;;5.80;99.90;;;;;;4844685;29;20050;-85
2023/10/15 03:29:16;;;;;;;8.40;1.70;;;6.50;99.90;;;;;;4845217;29;20053;-85
2023/10/15 03:36:03;;;;;;;5.87;1.50;;;6.20;99.90;;;;;;4844395;29;20140;-85
2023/10/15 03:38:54;;;;;;;6.47;1.67;;;5.60;99.90;;;;;;4852977;29;20132;-85
2023/10/15 03:45:43;;;;;;;;;;;;;;;;;;;;;
2023/10/15 03:56:01;;;;;;;6.00;1.60;;;5.90;99.90;;;;;;4915785;29;20056;-84
2023/10/15 03:59:11;;;;;;;7.80;1.63;;;5.10;99.90;;;;;;4896603;29;20411;-85
2023/10/15 04:01:58;;;;;;;5.60;1.47;;;5.70;99.90;;;;;;4895117;29;20044;-84
2023/10/15 04:04:29;;;;;;;7.17;1.50;;;5.90;99.90;;;;;;4899877;29;20047;-85
2023/10/15 04:12:34;;;;;;;8.63;1.60;;;5.50;99.90;;;;;;5041739;23;20417;-85
2023/10/15 04:15:30;;;;;;;6.03;1.50;;;5.50;99.90;;;;;;4899883;29;20798;-85
2023/10/15 04:19:04;;;;;;;8.20;1.73;;;5.40;99.90;;;;;;4899593;29;20066;-85
2023/10/15 04:21:30;;;;;;;6.10;1.57;;;5.70;99.90;;;;;;4900479;29;20496;-87
2023/10/15 04:24:52;;;;;;;26.53;17.60;;;5.60;99.90;;;;;;4900570;29;20040;-87
2023/10/15 04:28:08;;;;;;;24.63;16.90;;;5.00;99.90;;;;;;4900368;29;20091;-85
2023/10/15 04:30:52;;;;;;;;;;;5.50;99.90;;;;;;4931203;23;20579;-85
2023/10/15 04:33:20;;;;;;;;;;;5.80;99.90;;;;;;4935304;29;19923;-84
2023/10/15 04:39:48;;;;;;;19.77;16.70;;;5.40;99.90;;;;;;4936099;29;20043;-85
2023/10/15 04:45:35;;;;;;;14.77;10.50;;;5.60;99.90;;;;;;4922141;23;20057;-84
2023/10/15 04:49:23;;;;;;;18.90;9.70;;;5.30;99.90;;;;;;4882132;29;20408;-86
2023/10/15 04:55:08;;;;;;;54.87;33.90;;;5.50;99.90;;;;;;4860664;29;20106;-85
2023/10/15 04:58:08;;;;;;;33.07;18.07;;;5.60;99.90;;;;;;4915608;23;20049;-85
2023/10/15 05:00:59;;;;;;;36.10;21.60;;;7.00;99.90;;;;;;4917913;29;20055;-85
2023/10/15 05:07:07;;;;;;;7.07;2.03;;;6.50;99.90;;;;;;4883266;29;20052;-85
2023/10/15 05:09:40;;;;;;;43.33;29.10;;;5.80;99.90;;;;;;4916365;29;20047;-85
2023/10/15 05:12:32;;;;;;;17.23;9.63;;;5.70;99.90;;;;;;4912746;29;20062;-85
2023/10/15 05:15:16;;;;;;;14.20;9.67;;;5.60;99.90;;;;;;4918416;29;20131;-84
2023/10/15 05:17:47;;;;;;;;;;;5.40;99.90;;;;;;4919639;29;20039;-84
2023/10/15 05:20:44;;;;;;;11.40;6.67;;;7.10;99.90;;;;;;4917463;29;19926;-85
2023/10/15 05:26:39;;;;;;;8.73;2.97;;;5.50;99.90;;;;;;4900718;29;20050;-84
2023/10/15 05:29:12;;;;;;;11.43;4.37;;;5.20;99.90;;;;;;4918315;29;20051;-83
2023/10/15 05:31:42;;;;;;;16.42;8.75;;;5.40;99.90;;;;;;4918769;29;20049;-85
2023/10/15 05:34:15;;;;;;;9.53;3.93;;;7.30;99.90;;;;;;4922660;23;20119;-85
2023/10/15 05:36:58;;;;;;;12.68;7.30;;;5.80;99.90;;;;;;4909659;29;20051;-85
2023/10/15 05:39:42;;;;;;;17.58;9.23;;;6.40;99.90;;;;;;4917324;29;20055;-83
2023/10/15 05:42:21;;;;;;;14.38;7.72;;;7.10;99.90;;;;;;4918317;29;20083;-85
2023/10/15 05:44:59;;;;;;;10.40;4.63;;;5.70;99.90;;;;;;4946299;23;20039;-85
2023/10/15 05:48:28;;;;;;;10.23;2.80;;;5.80;99.90;;;;;;4885233;29;20103;-85
2023/10/15 05:50:54;;;;;;;9.33;2.10;;;6.00;99.90;;;;;;4894088;29;20056;-86
2023/10/15 05:53:30;;;;;;;11.03;5.30;;;6.00;99.90;;;;;;4930313;29;20070;-85
2023/10/15 05:55:56;;;;;;;12.47;6.43;;;5.90;99.90;;;;;;4975398;24;20535;-84
2023/10/15 05:58:40;;;;;;;8.87;2.83;;;5.10;99.90;;;;;;4898732;29;20470;-85
2023/10/15 06:01:06;;;;;;;11.38;5.25;;;7.20;99.90;;;;;;4929094;29;20115;-86
2023/10/15 06:03:35;;;;;;;8.90;2.57;;;6.00;99.90;;;;;;4926660;29;20135;-85
2023/10/15 06:06:19;;;;;;;16.47;7.87;;;7.10;99.90;;;;;;4898142;29;20048;-86
2023/10/15 06:08:45;;;;;;;10.52;2.90;;;7.00;99.90;;;;;;4898379;29;20048;-83
2023/10/15 06:11:11;;;;;;;8.37;2.23;;;5.90;99.90;;;;;;4897651;29;20166;-83
2023/10/15 06:13:37;;;;;;;7.73;1.90;;;7.20;99.90;;;;;;4899316;29;20067;-82
2023/10/15 06:16:21;;;;;;;;;;;6.20;99.90;;;;;;4898421;29;20052;-82
2023/10/15 06:18:47;;;;;;;10.30;3.80;;;5.60;99.90;;;;;;4899159;29;20290;-83
2023/10/15 06:21:14;;;;;;;10.10;2.97;;;6.40;99.90;;;;;;4899044;29;20052;-83
2023/10/15 06:23:40;;;;;;;7.27;1.90;;;6.20;99.90;;;;;;4898406;29;20060;-83
2023/10/15 06:26:23;;;;;;;6.77;1.67;;;7.30;99.90;;;;;;4899110;29;20131;-83
2023/10/15 06:28:57;;;;;;;6.93;1.50;;;6.60;99.90;;;;;;4898803;29;20391;-83
2023/10/15 06:31:23;;;;;;;5.73;1.70;;;6.90;99.90;;;;;;4895272;29;20048;-83
2023/10/15 06:34:06;;;;;;;5.30;1.40;;;6.60;99.90;;;;;;4897153;29;20054;-82
2023/10/15 06:36:34;;;;;;;3.83;1.10;;;6.10;99.90;;;;;;4929672;29;20527;-82
2023/10/15 06:39:09;;;;;;;4.17;1.20;;;6.20;99.90;;;;;;4898962;29;20135;-82
2023/10/15 06:41:50;;;;;;;6.93;1.63;;;6.20;99.90;;;;;;4901917;29;20051;-82
2023/10/15 06:44:16;;;;;;;2.60;1.00;;;7.50;99.90;;;;;;4901337;29;20055;-82
2023/10/15 06:46:54;;;;;;;5.70;1.40;;;6.00;99.90;;;;;;4902672;29;20492;-82
2023/10/15 06:49:20;;;;;;;5.90;1.50;;;7.80;99.90;;;;;;4902495;29;20134;-83
2023/10/15 06:51:48;;;;;;;6.90;1.60;;;6.10;99.90;;;;;;4901863;29;20127;-83
2023/10/15 06:54:16;;;;;;;10.30;3.83;;;6.40;99.90;;;;;;4902273;29;20050;-83
2023/10/15 06:56:41;;;;;;;8.57;2.00;;;6.50;99.90;;;;;;4902688;29;20064;-84
2023/10/15 06:59:17;;;;;;;10.77;5.90;;;6.50;99.90;;;;;;4902223;29;20111;-85
2023/10/15 07:01:45;;;;;;;12.47;5.50;;;6.60;99.90;;;;;;4902916;29;20052;-84
2023/10/15 07:04:12;;;;;;;14.77;8.57;;;7.10;99.90;;;;;;4901772;29;20050;-83
2023/10/15 07:06:39;;;;;;;7.53;1.77;;;7.10;99.90;;;;;;4902323;29;20063;-83
2023/10/15 07:09:06;;;;;;;14.60;7.97;;;6.40;99.90;;;;;;4901168;29;20048;-83
2023/10/15 07:11:32;;;;;;;9.40;3.10;;;6.50;99.90;;;;;;4894238;29;20047;-83
2023/10/15 07:14:00;;;;;;;14.93;7.43;;;6.50;99.90;;;;;;4898756;29;20548;-83
2023/10/15 07:16:50;;;;;;;10.50;4.80;;;6.60;99.90;;;;;;4899614;29;20445;-83
2023/10/15 07:19:28;;;;;;;17.83;10.17;;;6.70;99.90;;;;;;4895651;29;20040;-82
2023/10/15 07:21:55;;;;;;;8.73;3.47;;;5.90;99.90;;;;;;4894712;29;20047;-83
2023/10/15 07:24:22;;;;;;;4.35;1.40;;;6.40;99.90;;;;;;4897156;29;20131;-82
2023/10/15 07:26:48;;;;;;;13.37;5.73;;;6.70;99.90;;;;;;4898515;29;20051;-83
2023/10/15 07:29:13;;;;;;;12.33;5.43;;;6.70;99.90;;;;;;4899855;29;20062;-83
2023/10/15 07:31:39;;;;;;;4.87;1.40;;;6.70;99.90;;;;;;4898412;29;20087;-83
2023/10/15 07:34:05;;;;;;;6.50;1.20;;;6.70;99.90;;;;;;4899590;29;20040;-83
2023/10/15 07:36:32;;;;;;;3.97;1.30;;;6.70;99.90;;;;;;4896671;29;20045;-83
2023/10/15 07:38:58;;;;;;;5.43;1.77;;;6.70;99.90;;;;;;4898595;29;20078;-83
2023/10/15 07:41:23;;;;;;;3.70;1.20;;;6.70;99.90;;;;;;4898591;29;20090;-83
2023/10/15 07:43:49;;;;;;;3.03;0.90;;;6.70;99.90;;;;;;4897973;29;20450;-80
2023/10/15 07:46:24;;;;;;;5.65;1.90;;;6.70;99.90;;;;;;4897538;29;20525;-81
2023/10/15 07:48:49;;;;;;;8.60;3.67;;;6.70;99.90;;;;;;4895540;29;20130;-81
2023/10/15 07:51:24;;;;;;;7.10;2.70;;;6.40;99.90;;;;;;4898014;29;20184;-82
2023/10/15 07:53:52;;;;;;;5.10;1.27;;;6.30;99.90;;;;;;4904805;29;20040;-82
2023/10/15 07:56:17;;;;;;;5.27;1.30;;;6.50;99.90;;;;;;4926922;29;20074;-82
2023/10/15 07:58:43;;;;;;;5.80;1.10;;;6.70;99.90;;;;;;4944779;29;20039;-82
2023/10/15 08:01:09;;;;;;;2.53;0.90;;;6.70;99.90;;;;;;4916357;29;20051;-82
2023/10/15 08:03:34;;;;;;;3.35;1.00;;;6.80;99.90;;;;;;4918238;29;20490;-82
2023/10/15 08:06:23;;;;;;;4.43;1.33;;;6.80;99.90;;;;;;4915493;29;20052;-82
2023/10/15 08:08:55;;;;;;;3.70;1.10;;;6.60;99.90;;;;;;4930075;29;20044;-82
2023/10/15 08:11:20;;;;;;;2.43;1.30;;;5.80;99.90;;;;;;4948484;28;20533;-82
2023/10/15 08:13:46;;;;;;;6.03;1.50;;;6.50;99.90;;;;;;4915826;29;20160;-81
2023/10/15 08:16:12;;;;;;;5.63;1.70;;;6.40;99.90;;;;;;4916045;29;20048;-82
2023/10/15 08:18:55;;;;;;;4.37;1.20;;;6.30;99.90;;;;;;4917931;29;20047;-82
2023/10/15 08:21:24;;;;;;;7.50;2.17;;;6.40;99.90;;;;;;4931367;29;20043;-82
2023/10/15 08:24:07;;;;;;;5.37;1.47;;;5.90;99.90;;;;;;4913927;29;20151;-82
2023/10/15 08:26:37;;;;;;;5.72;1.25;;;6.20;99.90;;;;;;4933167;29;20146;-82
2023/10/15 08:29:02;;;;;;;5.57;1.67;;;6.70;99.90;;;;;;4943405;29;20142;-82
2023/10/15 08:31:28;;;;;;;2.63;1.20;;;6.30;99.90;;;;;;4916495;29;20134;-81
2023/10/15 08:33:54;;;;;;;7.53;2.43;;;7.00;99.90;;;;;;4949154;29;20086;-81
2023/10/15 08:36:22;;;;;;;1.83;0.97;;;6.20;99.90;;;;;;4946560;29;20543;-82
2023/10/15 08:38:49;;;;;;;6.20;2.10;;;6.10;99.90;;;;;;4916603;29;20045;-87
2023/10/15 08:41:20;;;;;;;9.43;4.13;;;6.10;99.90;;;;;;4934038;29;20043;-82
2023/10/15 08:43:46;;;;;;;10.37;4.80;;;7.00;99.90;;;;;;4909471;29;20118;-82
2023/10/15 08:46:12;;;;;;;8.83;2.90;;;6.10;99.90;;;;;;4916818;29;20051;-82
2023/10/15 08:48:41;;;;;;;7.93;2.00;;;6.20;99.90;;;;;;4917718;29;20044;-81
2023/10/15 08:51:12;;;;;;;6.30;2.57;;;6.30;99.90;;;;;;4915055;29;20067;-83
2023/10/15 08:53:40;;;;;;;5.87;1.40;;;6.30;99.90;;;;;;4913183;29;20044;-82
2023/10/15 08:56:10;;;;;;;9.93;3.43;;;6.50;99.90;;;;;;4912995;29;20055;-81
2023/10/15 08:58:36;;;;;;;8.53;3.00;;;6.60;99.90;;;;;;4947951;29;20039;-82
2023/10/15 09:01:06;;;;;;;7.33;2.00;;;6.70;99.90;;;;;;4948287;29;20042;-82
2023/10/15 09:03:40;;;;;;;6.77;1.50;;;6.80;99.90;;;;;;4944523;28;20703;-82
2023/10/15 09:06:16;;;;;;;7.07;1.70;;;6.70;99.90;;;;;;4947876;28;20050;-82
2023/10/15 09:08:43;;;;;;;7.47;1.60;;;7.10;99.90;;;;;;4914115;29;20111;-83
2023/10/15 09:11:10;;;;;;;6.60;1.73;;;7.70;99.90;;;;;;4915844;29;20491;-82
2023/10/15 09:13:37;;;;;;;6.03;1.43;;;8.60;99.90;;;;;;4913869;29;20379;-82
2023/10/15 09:16:07;;;;;;;7.93;1.40;;;7.70;99.90;;;;;;4932017;29;20040;-83
2023/10/15 09:18:38;;;;;;;7.50;1.35;;;7.90;99.90;;;;;;4916042;29;20518;-83
2023/10/15 09:21:04;;;;;;;4.97;1.30;;;7.90;99.90;;;;;;4916695;29;20395;-81
2023/10/15 09:23:35;;;;;;;4.97;1.48;;;8.70;99.90;;;;;;4916011;29;20044;-82
2023/10/15 09:26:01;;;;;;;6.93;1.60;;;7.90;99.90;;;;;;4931536;29;20050;-82
2023/10/15 09:28:28;;;;;;;6.32;1.48;;;8.00;99.90;;;;;;4932974;29;20134;-82
2023/10/15 09:31:09;;;;;;;5.28;1.50;;;8.10;99.90;;;;;;4932841;29;20154;-82
2023/10/15 09:33:35;;;;;;;8.55;2.90;;;8.30;99.90;;;;;;4925829;29;20055;-81
2023/10/15 09:36:04;;;;;;;44.80;25.70;;;8.30;99.90;;;;;;4911115;29;20500;-82
2023/10/15 09:38:33;;;;;;;13.90;7.13;;;8.20;99.90;;;;;;4931129;29;20070;-82
2023/10/15 09:41:03;;;;;;;31.50;18.97;;;8.60;99.90;;;;;;4916203;29;20051;-82
2023/10/15 09:43:35;;;;;;;12.93;6.55;;;8.10;99.90;;;;;;4933226;29;20200;-82
2023/10/15 09:46:03;;;;;;;24.70;11.05;;;8.00;99.90;;;;;;4944723;28;20067;-82
2023/10/15 09:48:29;;;;;;;14.27;7.00;;;8.00;99.90;;;;;;4915744;29;20076;-82
2023/10/15 09:50:59;;;;;;;8.27;3.03;;;8.20;99.90;;;;;;4915496;29;20187;-82
2023/10/15 09:53:32;;;;;;;19.92;9.85;;;8.30;99.90;;;;;;4931518;29;20058;-82
2023/10/15 09:56:03;;;;;;;6.70;1.90;;;8.50;99.90;;;;;;4908329;29;20052;-82
2023/10/15 09:58:54;;;;;;;5.25;1.80;;;8.70;99.90;;;;;;4938502;23;20291;-82
2023/10/15 10:01:28;;;;;;;11.88;4.22;;;8.80;99.90;;;;;;5093352;23;20108;-83
2023/10/15 10:04:06;;;;;;;16.77;6.20;;;9.00;99.90;;;;;;4897467;29;20044;-82
2023/10/15 10:07:00;;;;;;;30.35;15.27;;;9.20;99.90;;;;;;4889560;29;20115;-80
2023/10/15 10:09:37;;;;;;;6.43;1.67;;;9.40;99.90;;;;;;4927673;29;20531;-79
2023/10/15 10:12:34;;;;;;;46.45;21.75;;;9.50;99.90;;;;;;4896925;29;20048;-80
2023/10/15 10:15:15;;;;;;;8.35;3.03;;;9.60;99.90;;;;;;4897568;29;20055;-81
2023/10/15 10:17:42;;;;;;;8.07;1.88;;;9.70;99.90;;;;;;4929124;29;20048;-81
2023/10/15 10:20:11;;;;;;;12.88;5.03;;;10.00;99.90;;;;;;4899955;29;20401;-80
2023/10/15 10:22:38;;;;;;;9.57;3.47;;;10.30;99.90;;;;;;4891180;29;20043;-80
2023/10/15 10:25:05;;;;;;;6.25;1.70;;;10.50;99.90;;;;;;4910366;29;20048;-80
2023/10/15 10:27:42;;;;;;;27.70;12.73;;;10.60;99.90;;;;;;4899327;29;20103;-80
2023/10/15 10:30:23;;;;;;;6.75;1.60;;;10.50;99.90;;;;;;4892544;29;20048;-83
2023/10/15 10:32:50;;;;;;;6.55;1.58;;;10.30;99.90;;;;;;4904614;29;20048;-81
2023/10/15 10:35:20;;;;;;;8.68;1.50;;;10.20;99.90;;;;;;4899628;29;20048;-81
2023/10/15 10:38:05;;;;;;;5.82;1.42;;;11.40;99.90;;;;;;4902332;29;20142;-81
2023/10/15 10:40:47;;;;;;;6.25;1.48;;;10.20;99.90;;;;;;4891978;29;20056;-81
2023/10/15 10:43:18;;;;;;;20.30;8.45;;;10.40;99.90;;;;;;4883206;29;20127;-81
2023/10/15 10:45:59;;;;;;;16.73;6.32;;;11.00;99.90;;;;;;4884236;29;20075;-82
2023/10/15 10:48:29;;;;;;;20.35;8.15;;;10.90;99.90;;;;;;4883490;29;20135;-83
2023/10/15 10:51:24;;;;;;;23.23;9.85;;;11.80;99.90;;;;;;4886180;29;20047;-83
2023/10/15 10:53:57;;;;;;;6.97;1.73;;;10.30;99.90;;;;;;4902837;29;20044;-83
2023/10/15 10:56:24;;;;;;;;;;;10.20;99.90;;;;;;4901725;29;20052;-83
2023/10/15 10:58:54;;;;;;;16.48;6.05;;;10.20;99.90;;;;;;4902638;29;19923;-83
2023/10/15 11:01:28;;;;;;;37.30;19.27;;;10.70;99.90;;;;;;4892335;29;20057;-85
2023/10/15 11:04:10;;;;;;;19.55;9.65;;;10.10;99.90;;;;;;4882789;29;20236;-84
2023/10/15 11:06:45;;;;;;;11.98;4.80;;;9.30;99.90;;;;;;4878421;29;20041;-83
2023/10/15 11:09:23;;;;;;;5.18;1.55;;;9.80;99.90;;;;;;4880005;29;20049;-82
2023/10/15 11:11:51;;;;;;;6.30;1.85;;;8.40;99.90;;;;;;4879242;29;20040;-84
2023/10/15 11:14:25;;;;;;;7.05;1.92;;;8.60;99.90;;;;;;4880268;29;20533;-82
2023/10/15 11:16:56;;;;;;;5.72;1.55;;;8.90;99.90;;;;;;4894395;29;20048;-81
2023/10/15 11:19:29;;;;;;;6.78;1.48;;;8.20;99.90;;;;;;4883018;29;20477;-82
2023/10/15 11:22:06;;;;;;;5.63;1.60;;;9.10;99.90;;;;;;4911121;29;20408;-82
2023/10/15 11:24:35;;;;;;;7.00;1.60;;;8.50;99.90;;;;;;4893964;29;20088;-82
2023/10/15 11:27:13;;;;;;;8.88;3.70;;;9.80;99.90;;;;;;4911370;29;20093;-83
2023/10/15 11:29:38;;;;;;;9.40;2.30;;;10.70;99.90;;;;;;4877480;29;20043;-82
2023/10/15 11:32:19;;;;;;;11.50;5.32;;;9.40;99.90;;;;;;4911248;29;20048;-82
2023/10/15 11:35:03;;;;;;;8.88;2.47;;;9.30;99.90;;;;;;4871364;29;20139;-82
2023/10/15 11:37:44;;;;;;;13.90;7.47;;;10.00;99.90;;;;;;4880904;29;20135;-82
2023/10/15 11:40:29;;;;;;;10.90;3.45;;;11.20;99.90;;;;;;4894709;29;20049;-82
2023/10/15 11:42:55;;;;;;;10.32;3.95;;;11.40;99.90;;;;;;4911218;29;20052;-82
2023/10/15 11:45:39;;;;;;;11.27;3.05;;;11.60;99.90;;;;;;4910480;29;20040;-82
2023/10/15 11:48:21;;;;;;;7.63;2.08;;;12.00;99.90;;;;;;4880183;29;20057;-83
2023/10/15 11:50:52;;;;;;;10.05;1.75;;;11.90;99.90;;;;;;4877367;29;20063;-83
2023/10/15 11:53:30;;;;;;;8.70;2.53;;;11.20;99.90;;;;;;4909779;29;20047;-81
2023/10/15 11:56:20;;;;;;;7.63;1.50;;;12.20;99.90;;;;;;4875548;29;20396;-81
2023/10/15 11:58:54;;;;;;;6.78;1.48;;;12.70;99.90;;;;;;4879023;29;20033;-81
2023/10/15 12:08:58;;;;;;;10.18;1.80;;;10.90;99.90;;;;;;4927823;29;20056;-82
2023/10/15 12:11:27;;;;;;;9.23;2.45;;;12.90;99.90;;;;;;4897434;29;20504;-82
2023/10/15 12:13:59;;;;;;;8.30;1.70;;;11.80;99.90;;;;;;4928212;29;20064;-83
2023/10/15 12:16:56;;;;;;;8.25;2.30;;;12.90;99.90;;;;;;4897597;29;20059;-82
2023/10/15 12:19:21;;;;;;;11.38;4.25;;;12.10;99.90;;;;;;4904764;29;20060;-82
2023/10/15 12:22:09;;;;;;;7.05;1.70;;;13.60;99.90;;;;;;4897923;29;20055;-82
2023/10/15 12:24:50;;;;;;;5.10;1.42;;;11.80;99.90;;;;;;4897154;29;20044;-82
2023/10/15 12:27:37;;;;;;;13.98;5.63;;;12.40;99.90;;;;;;4897994;29;20559;-82
2023/10/15 12:30:19;;;;;;;7.22;2.00;;;12.50;99.90;;;;;;4929136;29;20405;-82
2023/10/15 12:33:00;;;;;;;4.65;1.60;;;12.20;99.90;;;;;;4949219;23;20052;-83
2023/10/15 12:35:40;;;;;;;10.07;2.40;;;13.60;99.90;;;;;;5044391;23;20217;-82
2023/10/15 12:39:30;;;;;;;6.25;1.58;;;12.40;99.90;;;;;;4927201;29;20052;-83
2023/10/15 12:42:00;;;;;;;9.15;2.35;;;12.00;99.90;;;;;;4913094;29;20071;-83
2023/10/15 12:44:44;;;;;;;6.47;1.55;;;13.50;99.90;;;;;;4915114;29;20046;-83
2023/10/15 12:47:13;;;;;;;7.65;1.67;;;12.60;99.90;;;;;;4913588;29;20052;-82
2023/10/15 12:50:23;;;;;;;16.08;5.60;;;13.60;99.90;;;;;;4915715;29;20048;-83
2023/10/15 12:53:02;;;;;;;7.22;1.80;;;12.20;99.90;;;;;;4917230;29;20451;-84
2023/10/15 12:55:46;;;;;;;8.23;1.73;;;12.70;99.90;;;;;;4946001;29;20393;-83
2023/10/15 12:58:15;;;;;;;7.05;1.42;;;12.70;99.90;;;;;;4915129;29;20519;-84
2023/10/15 13:00:48;;;;;;;7.07;1.88;;;12.90;99.90;;;;;;4916742;29;20039;-84
2023/10/15 13:03:57;;;;;;;7.35;1.60;;;12.70;99.90;;;;;;4874099;29;20120;-83
2023/10/15 13:06:23;;;;;;;7.75;1.70;;;12.10;99.90;;;;;;4862675;29;20051;-84
2023/10/15 13:09:09;;;;;;;8.25;1.58;;;13.50;99.90;;;;;;4933144;29;20119;-82
2023/10/15 13:11:49;;;;;;;9.75;1.50;;;12.20;99.90;;;;;;4912223;29;20555;-82
2023/10/15 13:14:21;;;;;;;7.13;1.50;;;13.20;99.90;;;;;;4913533;29;20075;-81
2023/10/15 13:17:04;;;;;;;5.43;1.40;;;13.40;99.90;;;;;;4947745;29;20040;-81
2023/10/15 13:19:45;;;;;;;31.75;11.30;;;12.10;99.90;;;;;;4915119;29;20050;-81
2023/10/15 13:22:23;;;;;;;20.20;7.55;;;12.10;99.90;;;;;;4909922;29;20048;-81
2023/10/15 13:24:52;;;;;;;21.65;7.03;;;11.90;99.90;;;;;;4912502;29;20043;-81
2023/10/15 13:30:05;;;;;;;28.80;12.27;;;12.00;99.90;;;;;;4944983;23;20115;-82
2023/10/15 13:32:44;;;;;;;11.18;4.15;;;12.30;99.90;;;;;;4914250;29;20138;-82
2023/10/15 13:35:27;;;;;;;50.65;20.98;;;11.80;99.90;;;;;;4911697;29;20071;-82
2023/10/15 13:38:01;;;;;;;13.30;4.30;;;12.60;99.90;;;;;;4910690;29;20052;-83
2023/10/15 13:40:48;;;;;;;11.32;3.60;;;12.60;99.90;;;;;;4894655;29;20055;-82
2023/10/15 13:43:26;;;;;;;12.27;3.83;;;13.90;99.90;;;;;;4917729;29;20051;-83
2023/10/15 13:45:57;;;;;;;12.82;4.07;;;12.50;99.90;;;;;;4913090;29;20122;-83
2023/10/15 13:48:25;;;;;;;17.98;7.47;;;12.60;99.90;;;;;;4901771;29;20146;-82
2023/10/15 13:50:54;;;;;;;20.02;9.90;;;12.00;99.90;;;;;;4914050;29;20048;-83
2023/10/15 13:53:35;;;;;;;18.35;6.93;;;11.80;99.90;;;;;;4913912;29;20055;-83
2023/10/15 13:56:19;;;;;;;9.07;2.38;;;11.70;99.90;;;;;;4942791;29;20507;-85
2023/10/15 13:58:48;;;;;;;;;;;12.80;99.90;;;;;;4913507;29;20044;-85
2023/10/15 14:01:15;;;;;;;20.75;9.20;;;11.40;99.90;;;;;;4914549;29;20001;-84
2023/10/15 14:03:51;;;;;;;37.60;19.05;;;11.70;99.90;;;;;;4910293;29;20100;-84
2023/10/15 14:06:37;;;;;;;13.77;4.50;;;11.60;99.90;;;;;;4932625;29;20123;-84
2023/10/15 14:10:16;;;;;;;18.38;7.93;;;12.20;99.90;;;;;;4914318;29;20131;-83
2023/10/15 14:13:22;;;;;;;5.75;1.40;;;11.40;99.90;;;;;;4872290;29;20049;-84
2023/10/15 14:16:04;;;;;;;19.98;6.60;;;12.70;99.90;;;;;;4868023;29;20064;-83
2023/10/15 14:18:41;;;;;;;38.72;16.20;;;11.50;99.90;;;;;;4870621;29;20128;-84
2023/10/15 14:25:06;;;;;;;6.88;1.98;;;11.50;99.90;;;;;;4892854;29;20048;-85
2023/10/15 14:27:32;;;;;;;8.30;1.65;;;11.30;99.90;;;;;;4876579;29;20052;-85
2023/10/15 14:30:13;;;;;;;13.32;4.72;;;12.10;99.90;;;;;;4888247;29;20123;-82
2023/10/15 14:32:39;;;;;;;8.85;1.70;;;11.90;99.90;;;;;;4878413;29;20188;-84
2023/10/15 14:35:35;;;;;;;20.38;11.15;;;10.30;99.90;;;;;;4876809;29;20563;-85
2023/10/15 14:38:02;;;;;;;15.02;5.22;;;10.90;99.90;;;;;;4880773;29;20051;-84
2023/10/15 14:40:59;;;;;;;11.73;4.05;;;11.00;99.90;;;;;;4858267;29;20084;-85
2023/10/15 14:43:36;;;;;;;21.55;8.93;;;10.60;99.90;;;;;;4911177;29;20048;-85
2023/10/15 14:46:22;;;;;;;13.40;4.57;;;11.60;99.90;;;;;;4916230;29;20711;-84
2023/10/15 14:48:48;;;;;;;11.35;2.55;;;9.60;99.90;;;;;;4912496;29;20040;-85
2023/10/15 14:51:13;;;;;;;5.95;1.60;;;11.10;99.90;;;;;;4918683;23;20059;-84
2023/10/15 14:53:51;;;;;;;11.35;2.92;;;10.40;99.90;;;;;;4914659;29;20112;-85
2023/10/15 14:56:26;;;;;;;6.97;1.50;;;11.60;99.90;;;;;;4914014;29;20123;-85
2023/10/15 14:58:51;;;;;;;18.08;8.75;;;12.20;99.90;;;;;;4914704;29;20050;-84
2023/10/15 15:01:30;;;;;;;10.80;5.03;;;11.50;99.90;;;;;;4915722;29;20395;-85
2023/10/15 15:04:05;;;;;;;11.02;3.97;;;13.20;99.90;;;;;;4912374;29;20492;-84
2023/10/15 15:07:26;;;;;;;12.52;6.72;;;11.70;99.90;;;;;;4922977;23;20095;-85
2023/10/15 15:10:24;;;;;;;7.72;1.95;;;11.40;99.90;;;;;;4920617;29;20051;-86
2023/10/15 15:13:34;;;;;;;8.52;1.63;;;11.10;99.90;;;;;;4909303;29;20389;-85
2023/10/15 15:15:59;;;;;;;7.85;1.67;;;10.60;99.90;;;;;;4841532;23;20062;-85
2023/10/15 15:18:28;;;;;;;28.67;12.43;;;11.60;99.90;;;;;;4929747;29;20056;-84
2023/10/15 15:21:18;;;;;;;9.95;2.47;;;10.70;99.90;;;;;;4916243;29;20118;-85
2023/10/15 15:23:43;;;;;;;36.25;19.30;;;11.00;99.90;;;;;;4916445;29;20039;-84